Time;durP1;ratioP1;P1;durP2;ratioP2;P2;SDS_P1;SDS_P2;PMS_P1;PMS_P2;Temp;Humidity;BMP_temperature;BMP_pressure;BME280_temperature;BME280_humidity;BME280_pressure;Samples;Min_cycle;Max_cycle;Signal;HPM_P1;HPM_P2
2021/08/25 00:00:55;;;;;;;;;8.25;7.00;;;;;20.00;41.10;101750.22;5079548;27;45531;-46
2021/08/25 00:03:20;;;;;;;;;10.50;8.00;;;;;19.97;40.84;101753.88;5078267;27;46070;-49
2021/08/25 00:05:46;;;;;;;;;9.00;8.00;;;;;19.95;40.95;101749.53;5079382;27;45303;-51
2021/08/25 00:08:11;;;;;;;;;7.00;6.25;;;;;19.91;41.33;101743.44;5081325;28;45558;-48
2021/08/25 00:10:37;;;;;;;;;11.00;7.75;;;;;19.88;41.12;101748.88;5082770;27;45479;-49
2021/08/25 00:13:06;;;;;;;;;10.00;8.75;;;;;19.86;41.19;101739.19;5082540;27;45382;-48
2021/08/25 00:15:34;;;;;;;;;10.00;9.00;;;;;19.83;41.40;101748.16;5082771;27;45288;-46
2021/08/25 00:18:00;;;;;;;;;8.50;6.50;;;;;19.80;41.08;101742.94;5083191;28;45422;-47
2021/08/25 00:20:25;;;;;;;;;10.25;8.50;;;;;19.77;41.53;101737.69;5082351;27;45445;-47
2021/08/25 00:22:50;;;;;;;;;8.00;6.00;;;;;19.75;41.51;101742.22;5082865;27;46258;-50
2021/08/25 00:25:16;;;;;;;;;9.00;6.75;;;;;19.72;41.65;101732.56;5097785;27;45565;-47
2021/08/25 00:27:41;;;;;;;;;9.00;8.00;;;;;19.69;41.57;101732.66;5082861;27;45283;-48
2021/08/25 00:30:07;;;;;;;;;8.25;7.00;;;;;19.68;41.43;101724.72;5082558;28;45258;-48
2021/08/25 00:32:32;;;;;;;;;7.75;7.25;;;;;19.64;41.69;101730.13;5082622;27;46097;-47
2021/08/25 00:34:58;;;;;;;;;7.75;7.25;;;;;19.62;41.52;101725.78;5082381;27;45337;-47
2021/08/25 00:37:23;;;;;;;;;8.00;7.00;;;;;19.59;41.70;101716.13;5081420;28;45252;-47
2021/08/25 00:39:48;;;;;;;;;7.25;7.25;;;;;19.57;41.53;101715.31;5082268;27;45153;-47
2021/08/25 00:42:14;;;;;;;;;8.00;7.00;;;;;19.55;41.77;101713.63;5081318;27;46314;-47
2021/08/25 00:44:40;;;;;;;;;9.00;7.75;;;;;19.51;41.85;101717.31;5080988;28;45322;-46
2021/08/25 00:47:05;;;;;;;;;12.00;10.50;;;;;19.49;42.16;101720.03;5082451;28;45371;-46
2021/08/25 00:49:31;;;;;;;;;6.75;6.25;;;;;19.46;41.81;101718.38;5081892;27;45454;-47
2021/08/25 00:51:57;;;;;;;;;7.75;6.00;;;;;19.44;41.91;101714.00;5080816;27;45519;-48
2021/08/25 00:54:24;;;;;;;;;6.75;5.00;;;;;19.40;42.01;101713.25;5082658;27;45385;-49
2021/08/25 00:56:51;;;;;;;;;10.25;9.25;;;;;19.39;41.92;101705.31;5081892;27;45382;-47
2021/08/25 00:59:18;;;;;;;;;6.00;6.00;;;;;19.38;41.69;101714.22;5081146;27;45393;-47
2021/08/25 01:02:01;;;;;;;;;12.00;8.00;;;;;19.36;42.04;101708.06;5081801;27;46209;-47
2021/08/25 01:04:32;;;;;;;;;6.00;5.75;;;;;19.34;42.03;101716.13;5081642;27;45314;-50
2021/08/25 01:06:57;;;;;;;;;9.00;7.50;;;;;19.30;42.03;101706.53;5080837;28;45407;-48
2021/08/25 01:09:23;;;;;;;;;7.25;7.25;;;;;19.27;42.15;101699.50;5081773;28;45510;-49
2021/08/25 01:11:48;;;;;;;;;8.00;7.00;;;;;19.25;42.07;101701.34;5080293;27;46724;-48
2021/08/25 01:14:15;;;;;;;;;6.50;6.50;;;;;19.23;42.34;101703.22;5081700;27;45458;-47
2021/08/25 01:16:40;;;;;;;;;8.50;6.00;;;;;19.21;42.36;101697.06;5082013;27;45318;-48
2021/08/25 01:19:12;;;;;;;;;7.25;5.25;;;;;19.21;42.12;101698.88;5081443;27;45583;-48
2021/08/25 01:21:38;;;;;;;;;6.75;5.75;;;;;19.14;42.39;101688.41;5081822;27;45271;-47
2021/08/25 01:24:04;;;;;;;;;9.00;8.00;;;;;19.15;42.37;101697.28;5077119;27;45327;-48
2021/08/25 01:26:31;;;;;;;;;8.00;7.25;;;;;19.13;42.16;101701.78;5053766;28;45384;-46
2021/08/25 01:28:57;;;;;;;;;9.25;8.25;;;;;19.10;42.39;101697.41;5061353;28;45438;-51
2021/08/25 01:31:28;;;;;;;;;9.00;8.00;;;;;19.07;42.47;101697.53;5062362;28;45405;-48
2021/08/25 01:34:05;;;;;;;;;8.00;8.00;;;;;19.06;42.51;101697.59;5060503;28;45489;-48
2021/08/25 01:36:31;;;;;;;;;7.00;7.00;;;;;19.04;42.23;101697.63;5073869;28;45340;-47
2021/08/25 01:38:57;;;;;;;;;8.00;8.00;;;;;19.02;42.62;101699.50;5078863;28;45193;-47
2021/08/25 01:41:23;;;;;;;;;7.00;6.00;;;;;19.00;42.29;101693.34;5061464;28;46103;-48
2021/08/25 01:43:58;;;;;;;;;10.00;10.00;;;;;18.97;42.27;101690.81;5080228;28;45316;-48
2021/08/25 01:46:26;;;;;;;;;6.00;6.00;;;;;18.94;42.70;101690.88;5070052;28;45305;-47
2021/08/25 01:48:53;;;;;;;;;5.50;4.75;;;;;18.94;42.53;101685.56;5075397;28;45447;-48
2021/08/25 01:51:19;;;;;;;;;8.50;7.75;;;;;18.90;42.59;101678.56;5051285;28;46180;-48
2021/08/25 01:53:44;;;;;;;;;7.25;7.25;;;;;18.92;42.50;101682.09;5061017;28;45333;-47
2021/08/25 01:56:10;;;;;;;;;9.00;7.00;;;;;18.90;42.88;101689.22;5060978;28;45311;-47
2021/08/25 01:58:36;;;;;;;;;4.75;4.25;;;;;18.87;42.64;101674.22;5060375;28;45366;-50
2021/08/25 02:01:02;;;;;;;;;5.75;5.50;;;;;18.86;42.65;101684.94;5060810;28;46238;-51
2021/08/25 02:03:27;;;;;;;;;7.75;7.00;;;;;18.80;43.08;101676.25;5060937;28;45337;-51
2021/08/25 02:05:52;;;;;;;;;8.75;8.75;;;;;18.80;42.69;101680.69;5061051;28;45584;-49
2021/08/25 02:08:18;;;;;;;;;9.00;7.00;;;;;18.78;43.07;101682.50;5060904;28;45482;-50
2021/08/25 02:10:43;;;;;;;;;9.25;7.75;;;;;18.75;42.84;101678.16;5060575;28;45503;-48
2021/08/25 02:13:09;;;;;;;;;6.50;6.50;;;;;18.73;42.96;101671.16;5060899;28;45260;-48
2021/08/25 02:15:34;;;;;;;;;9.75;8.75;;;;;18.70;42.86;101671.25;5060863;28;45329;-48
2021/08/25 02:17:59;;;;;;;;;8.00;6.50;;;;;18.68;42.91;101668.66;5060716;28;50021;-50
2021/08/25 02:20:24;;;;;;;;;9.00;9.00;;;;;18.65;42.98;101664.31;5060483;28;45986;-51
2021/08/25 02:22:50;;;;;;;;;7.75;7.75;;;;;18.64;43.23;101664.34;5060878;28;45273;-48
2021/08/25 02:25:15;;;;;;;;;12.50;8.50;;;;;18.62;43.21;101669.72;5077818;28;45374;-51
2021/08/25 02:27:41;;;;;;;;;10.25;7.75;;;;;18.60;43.10;101674.25;5080897;27;45426;-49
2021/08/25 02:30:06;;;;;;;;;7.00;6.00;;;;;18.60;43.37;101671.59;5080032;27;46089;-49
2021/08/25 02:32:33;;;;;;;;;9.50;7.00;;;;;18.59;43.32;101664.50;5080822;27;45327;-46
2021/08/25 02:34:58;;;;;;;;;8.75;8.75;;;;;18.57;43.08;101669.00;5080814;27;45313;-49
2021/08/25 02:37:23;;;;;;;;;7.75;6.50;;;;;18.56;43.22;101664.59;5080869;27;45488;-51
2021/08/25 02:39:49;;;;;;;;;10.00;8.00;;;;;18.55;43.40;101665.50;5080289;28;45413;-47
2021/08/25 02:42:14;;;;;;;;;8.50;6.50;;;;;18.54;43.27;101670.91;5080722;27;45313;-47
2021/08/25 02:44:40;;;;;;;;;9.25;7.50;;;;;18.51;43.45;101670.09;5080762;27;45248;-49
2021/08/25 02:47:05;;;;;;;;;7.25;6.50;;;;;18.50;43.45;101667.47;5071994;28;45359;-48
2021/08/25 02:49:31;;;;;;;;;7.00;5.00;;;;;18.48;43.59;101667.50;5075692;28;46054;-49
2021/08/25 02:51:56;;;;;;;;;7.25;7.25;;;;;18.48;43.39;101662.19;5079213;27;45433;-48
2021/08/25 02:54:21;;;;;;;;;8.25;7.00;;;;;18.46;43.56;101657.84;5080843;27;45185;-47
2021/08/25 02:56:47;;;;;;;;;10.00;6.00;;;;;18.47;43.36;101662.25;5079933;27;45223;-47
2021/08/25 02:59:14;;;;;;;;;7.75;7.00;;;;;18.46;43.56;101660.50;5079474;27;45197;-47
2021/08/25 03:01:39;;;;;;;;;9.75;7.50;;;;;18.43;43.51;101663.28;5080332;27;45160;-47
2021/08/25 03:04:04;;;;;;;;;8.00;6.75;;;;;18.34;43.59;101645.81;5080573;27;45626;-46
2021/08/25 03:06:29;;;;;;;;;6.25;6.25;;;;;18.40;43.69;101658.94;5080382;27;45284;-49
2021/08/25 03:08:55;;;;;;;;;6.75;6.50;;;;;18.39;43.58;101657.19;5080383;28;45370;-48
2021/08/25 03:11:20;;;;;;;;;8.75;7.50;;;;;18.38;43.74;101654.53;5079988;27;45321;-47
2021/08/25 03:13:45;;;;;;;;;8.50;7.00;;;;;18.35;44.06;101647.53;5080454;27;45284;-47
2021/08/25 03:16:11;;;;;;;;;10.00;8.75;;;;;18.35;43.75;101645.75;5080154;28;45305;-50
2021/08/25 03:18:36;;;;;;;;;8.75;8.50;;;;;18.33;43.89;101650.25;5080218;27;45336;-50
2021/08/25 03:21:02;;;;;;;;;8.00;6.75;;;;;18.28;44.10;101643.34;5080067;28;45345;-46
2021/08/25 03:23:27;;;;;;;;;7.75;7.00;;;;;18.28;43.91;101640.69;5080188;28;45409;-49
2021/08/25 03:25:53;;;;;;;;;12.25;8.25;;;;;18.25;44.07;101659.41;5079677;27;45256;-48
2021/08/25 03:28:19;;;;;;;;;6.75;6.00;;;;;18.23;43.97;101655.94;5078667;28;46383;-51
2021/08/25 03:30:44;;;;;;;;;7.75;6.25;;;;;18.19;44.16;101658.69;5079710;27;45448;-48
2021/08/25 03:33:09;;;;;;;;;8.75;6.75;;;;;18.19;44.18;101652.50;5080223;28;45315;-49
2021/08/25 03:35:35;;;;;;;;;7.50;7.50;;;;;18.16;44.27;101652.59;5079981;27;45388;-47
2021/08/25 03:38:00;;;;;;;;;7.25;7.25;;;;;18.13;44.36;101650.88;5080031;27;46380;-47
2021/08/25 03:40:26;;;;;;;;;10.25;8.25;;;;;18.09;44.32;101643.09;5079484;28;45363;-50
2021/08/25 03:42:52;;;;;;;;;9.25;8.25;;;;;18.09;44.23;101651.91;5081341;27;45272;-47
2021/08/25 03:45:17;;;;;;;;;6.00;5.25;;;;;18.07;44.50;101648.41;5083408;27;45227;-46
2021/08/25 03:47:42;;;;;;;;;8.50;7.00;;;;;18.05;44.20;101647.63;5083638;27;45230;-51
2021/08/25 03:50:08;;;;;;;;;12.00;8.50;;;;;18.03;44.25;101646.78;5080799;28;45449;-49
2021/08/25 03:52:34;;;;;;;;;11.00;9.25;;;;;18.03;44.52;101657.41;5083596;27;45249;-50
2021/08/25 03:54:59;;;;;;;;;8.00;7.25;;;;;18.03;44.39;101649.44;5082980;27;45271;-51
2021/08/25 03:57:24;;;;;;;;;8.50;7.25;;;;;18.02;44.51;101650.34;5083263;27;46103;-52
2021/08/25 03:59:50;;;;;;;;;7.50;6.75;;;;;18.00;44.56;101649.56;5082013;27;45290;-51
2021/08/25 04:02:15;;;;;;;;;8.00;7.00;;;;;18.00;44.58;101649.56;5082097;28;45240;-48
2021/08/25 04:04:41;;;;;;;;;5.75;5.75;;;;;17.99;44.77;101642.50;5083121;27;45181;-49
2021/08/25 04:07:06;;;;;;;;;6.50;5.25;;;;;17.98;44.61;101638.09;5083115;27;46281;-51
2021/08/25 04:09:31;;;;;;;;;7.00;5.25;;;;;17.93;44.60;101638.19;5082816;28;45441;-46
2021/08/25 04:11:57;;;;;;;;;9.50;6.50;;;;;17.94;44.66;101647.09;5083024;27;45407;-48
2021/08/25 04:14:22;;;;;;;;;9.00;7.00;;;;;17.89;44.61;101643.66;5082935;27;45395;-46
2021/08/25 04:16:47;;;;;;;;;6.25;6.25;;;;;17.90;44.80;101648.94;5082879;28;45252;-47
2021/08/25 04:19:12;;;;;;;;;7.25;6.00;;;;;17.89;44.86;101646.31;5082907;27;45284;-49
2021/08/25 04:21:38;;;;;;;;;12.00;9.50;;;;;17.87;44.81;101643.69;5082953;27;45299;-51
2021/08/25 04:24:03;;;;;;;;;6.75;6.75;;;;;17.84;44.81;101654.44;5082547;27;45274;-50
2021/08/25 04:26:29;;;;;;;;;9.50;9.50;;;;;17.81;45.00;101646.53;5082547;27;46176;-48
2021/08/25 04:28:55;;;;;;;;;10.25;9.25;;;;;17.80;44.86;101647.47;5082739;27;45337;-46
2021/08/25 04:31:21;;;;;;;;;8.25;8.25;;;;;17.77;45.07;101643.09;5082850;27;45387;-50
2021/08/25 04:33:46;;;;;;;;;7.50;7.50;;;;;17.76;45.02;101640.47;5081396;28;45472;-48
2021/08/25 04:36:11;;;;;;;;;9.50;9.50;;;;;17.73;45.16;101644.09;5082664;27;46282;-51
2021/08/25 04:38:37;;;;;;;;;8.50;8.00;;;;;17.71;45.01;101638.84;5082562;27;45306;-48
2021/08/25 04:41:02;;;;;;;;;11.50;11.25;;;;;17.70;45.23;101647.72;5082523;28;45161;-49
2021/08/25 04:43:27;;;;;;;;;7.00;7.00;;;;;17.68;45.02;101646.03;5082391;27;45557;-51
2021/08/25 04:45:54;;;;;;;;;8.75;8.00;;;;;17.67;45.29;101644.28;5082624;28;45202;-50
2021/08/25 04:48:19;;;;;;;;;10.50;10.50;;;;;17.63;45.16;101640.84;5082425;27;45505;-47
2021/08/25 04:50:44;;;;;;;;;8.00;8.00;;;;;17.63;45.04;101646.16;5081327;27;45283;-50
2021/08/25 04:53:10;;;;;;;;;11.00;9.00;;;;;17.62;45.36;101644.44;5081890;27;45221;-49
2021/08/25 04:55:36;;;;;;;;;7.75;7.75;;;;;17.62;45.48;101640.91;5082402;28;45306;-51
2021/08/25 04:58:02;;;;;;;;;9.25;9.25;;;;;17.60;45.31;101648.06;5081397;28;45347;-51
2021/08/25 05:00:28;;;;;;;;;8.75;7.00;;;;;17.59;45.28;101646.31;5082434;27;45378;-48
2021/08/25 05:02:53;;;;;;;;;8.75;7.25;;;;;17.58;45.30;101647.22;5082105;27;45645;-46
2021/08/25 05:05:18;;;;;;;;;10.00;8.50;;;;;17.57;45.43;101653.44;5082168;27;50671;-51
2021/08/25 05:07:44;;;;;;;;;9.25;9.25;;;;;17.54;45.34;101639.31;5082119;28;45288;-54
2021/08/25 05:10:09;;;;;;;;;8.25;6.25;;;;;17.53;45.53;101647.34;5082185;28;45481;-49
2021/08/25 05:12:35;;;;;;;;;12.00;11.50;;;;;17.53;45.49;101650.00;5081948;27;45465;-49
2021/08/25 05:15:00;;;;;;;;;8.75;6.00;;;;;17.51;45.46;101651.84;5081991;27;46112;-51
2021/08/25 05:17:25;;;;;;;;;6.25;6.25;;;;;17.52;45.52;101657.13;5081870;27;45274;-48
2021/08/25 05:19:51;;;;;;;;;8.75;8.25;;;;;17.49;45.66;101649.22;5082058;27;45331;-48
2021/08/25 05:22:16;;;;;;;;;11.50;10.50;;;;;17.48;45.61;101647.50;5115102;27;45578;-51
2021/08/25 05:24:41;;;;;;;;;12.50;12.00;;;;;17.49;45.70;101646.56;5113160;27;46107;-51
2021/08/25 05:27:07;;;;;;;;;10.50;7.00;;;;;17.49;45.39;101654.53;5081663;27;45169;-51
2021/08/25 05:29:32;;;;;;;;;8.50;8.25;;;;;17.47;45.57;101648.41;5072215;28;45260;-47
2021/08/25 05:31:57;;;;;;;;;10.75;10.25;;;;;17.45;45.67;101652.88;5077881;28;45148;-50
2021/08/25 05:34:23;;;;;;;;;8.75;8.75;;;;;17.46;45.90;101657.28;5081740;27;45251;-49
2021/08/25 05:36:48;;;;;;;;;7.50;7.25;;;;;17.45;45.71;101647.56;5081659;27;45410;-49
2021/08/25 05:39:14;;;;;;;;;8.50;8.50;;;;;17.43;45.89;101649.38;5081952;27;45196;-49
2021/08/25 05:41:39;;;;;;;;;9.75;9.50;;;;;17.43;45.69;101654.69;5081477;27;45208;-51
2021/08/25 05:44:04;;;;;;;;;10.50;9.25;;;;;17.45;45.87;101663.50;5081445;27;46169;-50
2021/08/25 05:46:33;;;;;;;;;8.50;8.25;;;;;17.45;46.02;101658.19;5081560;27;45235;-49
2021/08/25 05:48:59;;;;;;;;;11.00;10.00;;;;;17.44;45.72;101661.75;5081755;28;45325;-50
2021/08/25 05:51:25;;;;;;;;;11.00;10.75;;;;;17.44;46.19;101659.09;5079939;27;45281;-52
2021/08/25 05:53:52;;;;;;;;;10.25;9.50;;;;;17.43;46.25;101659.16;5081445;27;46200;-49
2021/08/25 05:56:17;;;;;;;;;13.50;11.00;;;;;17.40;46.19;101654.81;5081070;27;45219;-46
2021/08/25 05:58:43;;;;;;;;;11.00;9.00;;;;;17.43;46.14;101664.47;5080697;28;45255;-50
2021/08/25 06:01:12;;;;;;;;;7.00;7.00;;;;;17.43;45.92;101667.13;5081366;27;45578;-50
2021/08/25 06:03:37;;;;;;;;;7.00;6.00;;;;;17.43;46.08;101662.69;5080231;28;45371;-47
2021/08/25 06:06:02;;;;;;;;;9.25;9.25;;;;;17.44;46.03;101671.53;5080152;27;45350;-48
2021/08/25 06:08:28;;;;;;;;;13.50;12.00;;;;;17.44;46.07;101667.06;5081590;27;45600;-50
2021/08/25 06:10:53;;;;;;;;;8.75;8.00;;;;;17.44;46.33;101661.75;5080858;28;45318;-50
2021/08/25 06:13:19;;;;;;;;;10.25;9.25;;;;;17.45;46.29;101666.16;5080864;28;46131;-50
2021/08/25 06:15:44;;;;;;;;;11.25;9.50;;;;;17.47;46.22;101668.78;5080996;27;45236;-51
2021/08/25 06:18:09;;;;;;;;;10.00;10.00;;;;;17.48;46.29;101674.06;5081155;28;45256;-48
2021/08/25 06:20:35;;;;;;;;;11.75;9.50;;;;;17.50;46.17;101682.00;5080835;27;45557;-47
2021/08/25 06:23:01;;;;;;;;;8.50;7.50;;;;;17.51;46.36;101681.94;5080964;28;45385;-47
2021/08/25 06:25:26;;;;;;;;;11.25;10.00;;;;;17.52;46.21;101681.03;5080157;27;45361;-46
2021/08/25 06:27:51;;;;;;;;;13.25;11.25;;;;;17.55;46.19;101683.59;5080974;28;45239;-46
2021/08/25 06:30:17;;;;;;;;;10.75;10.75;;;;;17.57;46.39;101678.22;5080802;27;45416;-47
2021/08/25 06:32:42;;;;;;;;;8.25;8.25;;;;;17.60;46.22;101671.97;5080801;28;46260;-49
2021/08/25 06:35:09;;;;;;;;;13.25;11.25;;;;;17.63;46.60;101672.72;5080800;28;45270;-56
2021/08/25 06:37:34;;;;;;;;;10.50;10.50;;;;;17.66;46.27;101669.13;5080902;28;45191;-57
2021/08/25 06:39:59;;;;;;;;;10.00;9.25;;;;;17.70;46.51;101668.13;5080195;28;45350;-56
2021/08/25 06:42:25;;;;;;;;;10.25;9.00;;;;;17.74;46.72;101675.09;5080582;28;46256;-57
2021/08/25 06:44:50;;;;;;;;;11.75;10.00;;;;;17.76;46.69;101672.38;5080550;28;45334;-60
2021/08/25 06:47:15;;;;;;;;;13.75;9.75;;;;;17.77;46.48;101671.47;5080835;28;45295;-58
2021/08/25 06:49:41;;;;;;;;;10.25;10.00;;;;;17.80;46.72;101669.59;5079571;28;45515;-58
2021/08/25 06:52:06;;;;;;;;;11.50;10.00;;;;;17.83;46.70;101668.63;5074852;28;46095;-58
2021/08/25 06:54:31;;;;;;;;;8.75;8.00;;;;;17.85;46.77;101665.00;5074344;28;45340;-57
2021/08/25 06:56:57;;;;;;;;;13.25;10.50;;;;;17.87;46.84;101668.50;5080638;28;45341;-58
2021/08/25 06:59:22;;;;;;;;;10.00;8.50;;;;;17.90;46.48;101669.31;5080301;28;45473;-58
2021/08/25 07:01:47;;;;;;;;;13.25;9.00;;;;;17.93;46.61;101679.88;5080357;28;45336;-59
2021/08/25 07:04:13;;;;;;;;;10.50;9.75;;;;;17.94;46.62;101676.34;5080434;28;45304;-58
2021/08/25 07:06:38;;;;;;;;;10.75;10.00;;;;;17.98;46.73;101691.25;5080545;28;45957;-58
2021/08/25 07:09:03;;;;;;;;;14.75;12.00;;;;;17.99;46.73;101688.56;5080347;28;45471;-62
2021/08/25 07:11:29;;;;;;;;;11.75;8.00;;;;;18.02;46.69;101677.84;5079919;27;51285;-59
2021/08/25 07:13:54;;;;;;;;;9.25;8.00;;;;;18.02;46.59;101669.88;5080171;28;45292;-59
2021/08/25 07:16:19;;;;;;;;;9.00;7.00;;;;;18.06;46.89;101680.38;5080268;28;45359;-58
2021/08/25 07:18:45;;;;;;;;;11.50;8.00;;;;;18.10;46.70;101676.72;5080438;28;45318;-58
2021/08/25 07:21:11;;;;;;;;;10.50;9.25;;;;;18.11;46.72;101679.34;5079956;28;46712;-58
2021/08/25 07:23:36;;;;;;;;;9.00;9.00;;;;;18.13;46.49;101668.66;5080047;28;45390;-58
2021/08/25 07:26:02;;;;;;;;;7.00;7.00;;;;;18.16;46.86;101669.44;5079922;28;45178;-59
2021/08/25 07:28:27;;;;;;;;;13.50;11.50;;;;;18.19;46.80;101657.81;5079915;28;45323;-58
2021/08/25 07:30:53;;;;;;;;;9.00;9.00;;;;;18.22;46.64;101662.16;5079869;28;45216;-58
2021/08/25 07:33:20;;;;;;;;;9.25;9.00;;;;;18.21;47.08;101663.09;5080110;28;45251;-58
2021/08/25 07:35:46;;;;;;;;;7.75;7.75;;;;;18.26;46.61;101663.81;5080181;28;45317;-59
2021/08/25 07:38:12;;;;;;;;;9.00;8.25;;;;;18.28;46.59;101660.19;5079758;28;45387;-58
2021/08/25 07:40:38;;;;;;;;;8.50;7.75;;;;;18.33;46.92;101670.69;5079425;28;45429;-58
2021/08/25 07:43:04;;;;;;;;;10.75;7.25;;;;;18.35;46.79;101666.16;5079724;28;45335;-58
2021/08/25 07:45:29;;;;;;;;;7.25;7.00;;;;;18.38;46.64;101663.41;5079913;27;45318;-59
2021/08/25 07:47:55;;;;;;;;;11.25;10.00;;;;;18.44;46.74;101662.34;5079782;28;45296;-59
2021/08/25 07:50:20;;;;;;;;;9.75;8.75;;;;;18.47;46.77;101659.59;5083767;27;46318;-58
2021/08/25 07:52:45;;;;;;;;;9.50;7.50;;;;;18.50;46.69;101660.38;5103168;27;45303;-58
2021/08/25 07:55:11;;;;;;;;;9.50;8.25;;;;;18.53;46.79;101659.38;5080701;27;45863;-59
2021/08/25 07:57:36;;;;;;;;;6.75;6.75;;;;;18.59;46.88;101660.97;5089999;27;45486;-58
2021/08/25 08:00:03;;;;;;;;;10.00;8.00;;;;;18.63;46.61;101655.50;5085840;27;48072;-58
2021/08/25 08:02:28;;;;;;;;;7.25;7.25;;;;;18.68;46.75;101661.53;5081364;27;45388;-59
2021/08/25 08:04:54;;;;;;;;;10.00;8.75;;;;;18.74;46.83;101657.81;5079579;27;45253;-58
2021/08/25 08:07:19;;;;;;;;;7.00;6.00;;;;;18.78;46.92;101646.13;5079688;28;45231;-58
2021/08/25 08:09:44;;;;;;;;;7.50;7.50;;;;;18.83;46.83;101645.97;5079165;28;46080;-58
2021/08/25 08:12:10;;;;;;;;;9.00;8.00;;;;;18.89;46.94;101650.19;5079406;28;45250;-58
2021/08/25 08:14:35;;;;;;;;;11.00;8.25;;;;;18.94;46.77;101649.16;5079509;28;45232;-59
2021/08/25 08:17:02;;;;;;;;;11.00;11.00;;;;;18.98;46.77;101653.44;5079448;28;45452;-58
2021/08/25 08:19:33;;;;;;;;;7.25;7.00;;;;;19.05;47.30;101646.09;5079203;28;47039;-58
2021/08/25 08:21:59;;;;;;;;;7.75;6.75;;;;;19.10;46.70;101652.13;5079202;28;45465;-59
2021/08/25 08:24:25;;;;;;;;;9.25;7.75;;;;;19.17;46.91;101650.16;5078962;28;45322;-58
2021/08/25 08:26:51;;;;;;;;;9.25;9.25;;;;;19.22;46.97;101647.28;5079232;28;45251;-58
2021/08/25 08:29:16;;;;;;;;;9.50;9.00;;;;;19.28;46.81;101641.75;5080869;28;46048;-58
2021/08/25 08:31:42;;;;;;;;;9.00;9.00;;;;;19.35;47.02;101642.41;5082615;28;45260;-58
2021/08/25 08:34:07;;;;;;;;;8.00;7.75;;;;;19.40;46.41;101641.28;5082729;28;45264;-58
2021/08/25 08:36:33;;;;;;;;;10.25;7.75;;;;;19.47;46.75;101633.94;5081352;28;45841;-58
2021/08/25 08:38:58;;;;;;;;;11.50;8.00;;;;;19.53;46.64;101628.38;5082494;28;45309;-59
2021/08/25 08:41:23;;;;;;;;;10.50;9.50;;;;;19.60;46.60;101637.03;5082399;27;45319;-58
2021/08/25 08:43:50;;;;;;;;;9.75;9.25;;;;;19.63;46.93;101637.78;5081221;28;45260;-58
2021/08/25 08:46:18;;;;;;;;;9.00;9.00;;;;;19.73;46.85;101637.41;5082640;28;45508;-58
2021/08/25 08:48:45;;;;;;;;;10.00;9.75;;;;;19.81;46.66;101638.88;5080851;28;46879;-58
2021/08/25 08:51:12;;;;;;;;;11.00;9.00;;;;;19.86;46.81;101627.16;5082143;27;45186;-58
2021/08/25 08:53:38;;;;;;;;;8.00;8.00;;;;;19.95;46.57;101635.69;5082398;28;45353;-58
2021/08/25 08:56:04;;;;;;;;;6.00;6.00;;;;;20.02;47.01;101632.78;5082141;28;45508;-57
2021/08/25 08:58:29;;;;;;;;;8.00;8.00;;;;;20.09;46.25;101632.47;5081933;28;47210;-58
2021/08/25 09:00:55;;;;;;;;;9.50;9.00;;;;;20.18;46.94;101631.22;5082210;27;45358;-60
2021/08/25 09:03:22;;;;;;;;;9.75;9.25;;;;;20.26;46.78;101638.91;5082347;28;45239;-58
2021/08/25 09:05:57;;;;;;;;;8.00;7.00;;;;;20.36;46.85;101639.41;5081266;28;45411;-58
2021/08/25 09:08:24;;;;;;;;;9.00;9.00;;;;;20.43;46.86;101622.22;5060257;28;47202;-58
2021/08/25 09:11:00;;;;;;;;;10.50;10.00;;;;;20.51;46.53;101632.56;5072278;28;45243;-58
2021/08/25 09:13:34;;;;;;;;;9.50;8.50;;;;;20.60;46.84;101626.84;5081943;28;45313;-58
2021/08/25 09:15:59;;;;;;;;;12.00;10.00;;;;;20.70;46.17;101625.50;5082022;28;45231;-58
2021/08/25 09:18:25;;;;;;;;;11.75;10.50;;;;;20.78;46.52;101622.56;5081712;28;46121;-58
2021/08/25 09:20:50;;;;;;;;;12.25;8.75;;;;;20.89;46.69;101622.97;5082145;27;45371;-59
2021/08/25 09:23:18;;;;;;;;;9.75;9.50;;;;;20.99;46.15;101626.06;5081988;28;45231;-58
2021/08/25 09:25:49;;;;;;;;;8.00;7.25;;;;;21.07;46.21;101623.09;5081897;28;45316;-58
2021/08/25 09:28:16;;;;;;;;;10.25;10.25;;;;;21.16;45.95;101617.31;5081518;28;46499;-58
2021/08/25 09:30:53;;;;;;;;;11.75;10.75;;;;;21.22;46.31;101619.72;5080569;27;45338;-58
2021/08/25 09:33:20;;;;;;;;;9.25;7.75;;;;;21.36;46.05;101631.59;5081802;28;45268;-58
2021/08/25 09:35:45;;;;;;;;;10.50;10.50;;;;;21.46;45.79;101624.00;5081542;28;45326;-58
2021/08/25 09:38:21;;;;;;;;;10.25;10.25;;;;;21.54;46.16;101625.38;5081763;28;46491;-58
2021/08/25 09:40:50;;;;;;;;;9.75;9.25;;;;;21.66;45.45;101618.63;5079997;28;45334;-58
2021/08/25 09:43:40;;;;;;;;;10.50;9.00;;;;;21.76;45.53;101605.72;5081593;28;45323;-58
2021/08/25 09:46:11;;;;;;;;;10.50;9.50;;;;;21.88;45.31;101609.59;5081493;28;45343;-58
2021/08/25 09:48:42;;;;;;;;;10.25;10.00;;;;;21.98;45.46;101605.53;5079927;28;48397;-58
2021/08/25 09:51:09;;;;;;;;;11.25;10.00;;;;;22.10;45.45;101598.72;5081119;28;45498;-57
2021/08/25 09:53:35;;;;;;;;;9.00;8.00;;;;;22.21;45.17;101593.69;5081332;28;45275;-58
2021/08/25 09:56:00;;;;;;;;;8.50;8.50;;;;;22.33;45.05;101588.66;5081194;28;45367;-58
2021/08/25 09:58:26;;;;;;;;;11.25;10.00;;;;;22.44;45.03;101590.81;5081138;28;45478;-59
2021/08/25 10:00:53;;;;;;;;;10.50;9.25;;;;;22.58;45.10;101588.31;5081415;27;45292;-58
2021/08/25 10:03:19;;;;;;;;;11.75;10.00;;;;;22.72;44.78;101590.28;5081280;28;45354;-58
2021/08/25 10:05:48;;;;;;;;;10.75;10.00;;;;;22.84;44.89;101584.28;5079943;28;45861;-58
2021/08/25 10:08:15;;;;;;;;;9.75;9.00;;;;;22.97;44.67;101583.63;5080973;28;45517;-57
2021/08/25 10:10:41;;;;;;;;;8.50;8.50;;;;;23.12;44.56;101581.91;5080903;27;45190;-58
2021/08/25 10:13:07;;;;;;;;;13.75;12.75;;;;;23.25;44.55;101583.03;5079674;28;45385;-57
2021/08/25 10:15:40;;;;;;;;;8.50;7.50;;;;;23.40;44.46;101580.47;5081130;28;45464;-58
2021/08/25 10:18:21;;;;;;;;;10.25;9.25;;;;;23.55;44.31;101576.94;5080800;28;46355;-59
2021/08/25 10:20:46;;;;;;;;;9.75;7.75;;;;;23.69;43.91;101574.31;5080940;27;45324;-58
2021/08/25 10:23:12;;;;;;;;;12.25;9.50;;;;;23.85;43.96;101578.84;5081002;28;45481;-57
2021/08/25 10:26:07;;;;;;;;;8.25;8.00;;;;;24.03;43.98;101568.88;5080889;28;45430;-58
2021/08/25 10:29:06;;;;;;;;;8.25;7.75;;;;;24.19;43.69;101576.91;5071782;28;45552;-58
2021/08/25 10:31:49;;;;;;;;;9.25;7.25;;;;;24.38;43.47;101573.13;5080744;27;45335;-58
2021/08/25 10:34:17;;;;;;;;;10.75;10.00;;;;;24.55;43.49;101564.91;5080848;28;45242;-58
2021/08/25 10:36:42;;;;;;;;;9.50;8.25;;;;;24.72;43.32;101576.53;5080575;28;45430;-58
2021/08/25 10:39:29;;;;;;;;;10.00;9.50;;;;;24.93;42.96;101569.81;5080464;28;45302;-58
2021/08/25 10:41:56;;;;;;;;;7.00;7.00;;;;;25.11;43.13;101565.09;5080604;27;45434;-58
2021/08/25 10:44:36;;;;;;;;;7.25;7.25;;;;;25.35;42.71;101569.03;5080770;28;45264;-58
2021/08/25 10:47:03;;;;;;;;;12.50;11.00;;;;;25.56;43.17;101554.25;5080516;28;45546;-57
2021/08/25 10:49:33;;;;;;;;;8.50;8.50;;;;;25.80;42.51;101554.44;5080524;28;46160;-57
2021/08/25 10:52:13;;;;;;;;;10.00;8.50;;;;;26.10;42.50;101549.84;5079545;28;45260;-57
2021/08/25 10:54:40;;;;;;;;;11.25;10.50;;;;;26.39;42.33;101555.06;5080490;28;45372;-58
2021/08/25 10:57:08;;;;;;;;;9.00;7.25;;;;;26.68;42.95;101552.19;5078831;28;45507;-58
2021/08/25 10:59:33;;;;;;;;;6.00;6.00;;;;;26.98;42.74;101543.84;5080352;28;47019;-58
2021/08/25 11:01:59;;;;;;;;;8.75;7.50;;;;;27.31;42.75;101558.56;5080172;28;45218;-58
2021/08/25 11:04:25;;;;;;;;;9.50;9.50;;;;;27.65;42.33;101556.09;5080763;28;45426;-57
2021/08/25 11:06:58;;;;;;;;;8.00;8.00;;;;;27.98;41.91;101545.59;5080135;28;45212;-58
2021/08/25 11:09:26;;;;;;;;;9.75;9.75;;;;;28.32;41.68;101543.06;5080181;28;47049;-58
2021/08/25 11:11:56;;;;;;;;;10.25;8.00;;;;;28.64;41.86;101539.66;5080009;28;45157;-58
2021/08/25 11:14:24;;;;;;;;;11.25;10.00;;;;;28.98;41.48;101539.72;5080424;28;45333;-58
2021/08/25 11:16:51;;;;;;;;;9.25;8.25;;;;;29.30;41.58;101539.88;5080123;28;45521;-59
2021/08/25 11:19:21;;;;;;;;;9.00;7.25;;;;;29.62;41.28;101528.25;5080097;28;46189;-58